Time;durP1;ratioP1;P1;durP2;ratioP2;P2;SDS_P1;SDS_P2;PMS_P1;PMS_P2;Temp;Humidity;BMP_temperature;BMP_pressure;BME280_temperature;BME280_humidity;BME280_pressure;Samples;Min_cycle;Max_cycle;Signal;HPM_P1;HPM_P2
2022/08/15 00:00:20;;;;;;;;;;;25.80;78.30;;;;;;5054538;28;19909;-56
2022/08/15 00:02:47;;;;;;;;;;;25.70;78.90;;;;;;5054595;28;19916;-53
2022/08/15 00:05:15;;;;;;;;;;;25.70;79.70;;;;;;5055466;28;19913;-50
2022/08/15 00:07:41;;;;;;;;;;;25.60;79.40;;;;;;5054127;28;19909;-51
2022/08/15 00:10:07;;;;;;;;;;;25.70;79.10;;;;;;5036875;28;19916;-51
2022/08/15 00:12:34;;;;;;;;;;;25.70;78.70;;;;;;5034280;28;19913;-52
2022/08/15 00:15:00;;;;;;;;;;;25.70;78.90;;;;;;5032904;28;19913;-54
2022/08/15 00:17:25;;;;;;;;;;;25.70;79.60;;;;;;5039436;28;20402;-54
2022/08/15 00:19:51;;;;;;;;;;;25.60;80.00;;;;;;5035163;28;19919;-52
2022/08/15 00:22:17;;;;;;;;;;;25.60;80.30;;;;;;5033480;28;19951;-50
2022/08/15 00:24:44;;;;;;;;;;;25.70;80.80;;;;;;5034717;28;19921;-49
2022/08/15 00:27:09;;;;;;;;;;;25.70;80.50;;;;;;5034087;28;20012;-53
2022/08/15 00:29:35;;;;;;;;;;;25.70;80.20;;;;;;5033524;28;19949;-54
2022/08/15 00:32:02;;;;;;;;;;;25.70;80.20;;;;;;5034146;28;19913;-54
2022/08/15 00:34:27;;;;;;;;;;;25.80;79.80;;;;;;5033189;28;19917;-51
2022/08/15 00:36:53;;;;;;;;;;;25.80;79.80;;;;;;5033003;28;19963;-50
2022/08/15 00:39:20;;;;;;;;;;;25.80;80.20;;;;;;5033393;28;19979;-53
2022/08/15 00:41:48;;;;;;;;;;;25.80;80.30;;;;;;5033281;28;20372;-53
2022/08/15 00:44:22;;;;;;;;;;;25.70;79.70;;;;;;5045950;28;19989;-54
2022/08/15 00:46:50;;;;;;;;;;;25.70;79.90;;;;;;5053108;28;19940;-55
2022/08/15 00:49:16;;;;;;;;;;;25.60;80.70;;;;;;5054505;28;19909;-51
2022/08/15 00:51:42;;;;;;;;;;;25.50;80.80;;;;;;5053151;28;19909;-52
2022/08/15 00:54:11;;;;;;;;;;;25.50;80.20;;;;;;5052909;28;19923;-50
2022/08/15 00:56:39;;;;;;;;;;;25.50;80.70;;;;;;5051401;28;19912;-51
2022/08/15 00:59:07;;;;;;;;;;;25.50;81.50;;;;;;5053265;28;19915;-53
2022/08/15 01:07:38;;;;;;;;;;;25.60;81.80;;;;;;5052922;28;19909;-52
2022/08/15 01:10:06;;;;;;;;;;;25.60;82.10;;;;;;5052884;28;19916;-55
2022/08/15 01:12:32;;;;;;;;;;;25.60;82.70;;;;;;5052867;28;20003;-52
2022/08/15 01:15:04;;;;;;;;;;;25.60;83.20;;;;;;5051704;28;20414;-53
2022/08/15 01:17:30;;;;;;;;;;;25.60;83.70;;;;;;5052611;28;19955;-51
2022/08/15 01:20:00;;;;;;;;;;;25.70;83.90;;;;;;5035072;28;19913;-50
2022/08/15 01:22:41;;;;;;;;;;;25.70;83.90;;;;;;5032142;28;19909;-55
2022/08/15 01:25:12;;;;;;;;;;;25.70;83.40;;;;;;5033295;28;19924;-52
2022/08/15 01:27:44;;;;;;;;;;;25.60;82.90;;;;;;5032190;28;19913;-52
2022/08/15 01:30:12;;;;;;;;;;;25.70;82.70;;;;;;5033882;28;19913;-50
2022/08/15 01:32:38;;;;;;;;;;;25.70;82.60;;;;;;5033216;28;19917;-50
2022/08/15 01:35:04;;;;;;;;;;;25.70;82.50;;;;;;5033477;28;19913;-49
2022/08/15 01:37:30;;;;;;;;;;;25.60;82.60;;;;;;5032126;28;19909;-54
2022/08/15 01:40:01;;;;;;;;;;;25.60;83.00;;;;;;5034019;28;19909;-49
2022/08/15 01:42:32;;;;;;;;;;;25.50;83.20;;;;;;5034370;28;19910;-51
2022/08/15 01:45:01;;;;;;;;;;;25.50;83.30;;;;;;5053182;28;20300;-50
2022/08/15 01:47:36;;;;;;;;;;;25.50;82.90;;;;;;5056612;28;19908;-54
2022/08/15 01:50:08;;;;;;;;;;;25.50;82.90;;;;;;5057715;28;19909;-48
2022/08/15 01:52:41;;;;;;;;;;;25.50;82.60;;;;;;5056968;28;19909;-55
2022/08/15 01:55:07;;;;;;;;;;;25.50;82.50;;;;;;5056036;28;19917;-53
2022/08/15 01:57:33;;;;;;;;;;;25.40;82.20;;;;;;5056158;28;19917;-51
2022/08/15 01:59:59;;;;;;;;;;;25.40;82.00;;;;;;5055775;28;19908;-55
2022/08/15 02:02:25;;;;;;;;;;;25.40;81.90;;;;;;5056775;28;19909;-54
2022/08/15 02:04:51;;;;;;;;;;;25.40;82.00;;;;;;5056034;28;19916;-53
2022/08/15 02:07:21;;;;;;;;;;;25.40;82.40;;;;;;5055612;28;19913;-52
2022/08/15 02:09:48;;;;;;;;;;;25.40;82.40;;;;;;5056519;28;19999;-54
2022/08/15 02:12:14;;;;;;;;;;;25.30;82.10;;;;;;5055938;28;19913;-50
2022/08/15 02:14:41;;;;;;;;;;;25.30;82.40;;;;;;5056769;28;19913;-55
2022/08/15 02:17:08;;;;;;;;;;;25.20;82.40;;;;;;5055728;28;19909;-50
2022/08/15 02:19:34;;;;;;;;;;;25.10;82.20;;;;;;5041474;28;19936;-51
2022/08/15 02:22:00;;;;;;;;;;;25.10;82.20;;;;;;5036473;28;20519;-50
2022/08/15 02:24:25;;;;;;;;;;;25.00;82.00;;;;;;5037740;28;19913;-52
2022/08/15 02:26:52;;;;;;;;;;;25.00;81.70;;;;;;5035899;28;19914;-53
2022/08/15 02:29:20;;;;;;;;;;;25.00;81.60;;;;;;5036285;28;19915;-53
2022/08/15 02:31:45;;;;;;;;;;;25.00;81.40;;;;;;5036900;28;19917;-55
2022/08/15 02:34:11;;;;;;;;;;;25.00;81.40;;;;;;5036508;28;19909;-52
2022/08/15 02:36:37;;;;;;;;;;;25.00;81.30;;;;;;5034881;28;19917;-52
2022/08/15 02:39:04;;;;;;;;;;;25.00;81.50;;;;;;5035754;28;20455;-51
2022/08/15 02:41:35;;;;;;;;;;;25.00;81.60;;;;;;5034562;28;19936;-55
2022/08/15 02:44:01;;;;;;;;;;;25.00;81.40;;;;;;5046953;28;20261;-56
2022/08/15 02:46:29;;;;;;;;;;;25.00;81.30;;;;;;5055232;28;20506;-52
2022/08/15 02:48:55;;;;;;;;;;;25.00;81.40;;;;;;5055968;28;20287;-53
2022/08/15 02:51:22;;;;;;;;;;;25.10;81.40;;;;;;5055141;28;20012;-53
2022/08/15 02:53:49;;;;;;;;;;;25.00;81.40;;;;;;5054862;28;19932;-49
2022/08/15 02:56:16;;;;;;;;;;;25.00;81.80;;;;;;5054710;28;20194;-53
2022/08/15 02:58:41;;;;;;;;;;;25.00;81.80;;;;;;5054970;28;19912;-53
2022/08/15 03:01:10;;;;;;;;;;;25.00;81.80;;;;;;5056418;28;19920;-50
2022/08/15 03:03:38;;;;;;;;;;;25.00;81.60;;;;;;5055101;28;20324;-50
2022/08/15 03:06:04;;;;;;;;;;;25.10;81.60;;;;;;5055027;28;19913;-53
2022/08/15 03:08:30;;;;;;;;;;;25.00;81.50;;;;;;5055147;28;20250;-49
2022/08/15 03:10:56;;;;;;;;;;;25.00;81.50;;;;;;5055484;28;19958;-52
2022/08/15 03:13:22;;;;;;;;;;;25.00;81.20;;;;;;5054886;28;20037;-55
2022/08/15 03:15:51;;;;;;;;;;;24.90;81.90;;;;;;5054422;28;19913;-54
2022/08/15 03:18:17;;;;;;;;;;;24.90;82.20;;;;;;5051014;28;19918;-53
2022/08/15 03:20:44;;;;;;;;;;;24.80;82.40;;;;;;5035169;28;20327;-52
2022/08/15 03:23:10;;;;;;;;;;;24.80;82.50;;;;;;5035903;28;19960;-50
2022/08/15 03:25:40;;;;;;;;;;;24.80;82.50;;;;;;5034839;28;19920;-54
2022/08/15 03:28:06;;;;;;;;;;;24.80;82.60;;;;;;5035214;28;20350;-54
2022/08/15 03:30:32;;;;;;;;;;;24.80;82.90;;;;;;5035370;28;19916;-54
2022/08/15 03:32:58;;;;;;;;;;;24.80;83.10;;;;;;5050965;28;20138;-53
2022/08/15 03:35:27;;;;;;;;;;;24.80;83.10;;;;;;5044916;28;19952;-50
2022/08/15 03:37:52;;;;;;;;;;;24.80;82.90;;;;;;5053512;28;19932;-51
2022/08/15 03:40:18;;;;;;;;;;;24.80;82.70;;;;;;5053319;28;19909;-51
2022/08/15 03:42:54;;;;;;;;;;;24.80;82.70;;;;;;5053218;28;19913;-53
2022/08/15 03:45:20;;;;;;;;;;;24.80;82.90;;;;;;5049095;28;20388;-54
2022/08/15 03:47:46;;;;;;;;;;;24.80;83.00;;;;;;5055020;28;19912;-53
2022/08/15 03:50:13;;;;;;;;;;;24.80;83.20;;;;;;5056111;28;19916;-52
2022/08/15 03:52:58;;;;;;;;;;;24.80;83.30;;;;;;5054310;28;20365;-50
2022/08/15 03:55:25;;;;;;;;;;;24.80;83.30;;;;;;5053725;28;19916;-50
2022/08/15 03:57:51;;;;;;;;;;;24.80;83.40;;;;;;5053953;28;19913;-53
2022/08/15 04:00:18;;;;;;;;;;;24.80;83.30;;;;;;5053554;28;19916;-51
2022/08/15 04:02:43;;;;;;;;;;;24.80;83.30;;;;;;5054110;28;19920;-50
2022/08/15 04:05:09;;;;;;;;;;;24.80;83.20;;;;;;5052099;28;19917;-51
2022/08/15 04:07:36;;;;;;;;;;;24.80;83.20;;;;;;5053115;28;20352;-51
2022/08/15 04:10:05;;;;;;;;;;;24.80;83.10;;;;;;5054191;28;19912;-53
2022/08/15 04:12:34;;;;;;;;;;;24.80;82.90;;;;;;5055346;28;20383;-50
2022/08/15 04:15:00;;;;;;;;;;;24.60;83.50;;;;;;5053442;28;19913;-55
2022/08/15 04:17:26;;;;;;;;;;;24.50;83.70;;;;;;5047715;28;19916;-56
2022/08/15 04:19:52;;;;;;;;;;;24.50;83.90;;;;;;5033299;28;19913;-50
2022/08/15 04:22:27;;;;;;;;;;;24.40;84.70;;;;;;5033228;28;20274;-51
2022/08/15 04:24:52;;;;;;;;;;;24.50;84.60;;;;;;5033103;28;20620;-52
2022/08/15 04:27:18;;;;;;;;;;;24.50;85.00;;;;;;5041566;28;19913;-53
2022/08/15 04:29:43;;;;;;;;;;;24.60;84.30;;;;;;5051303;28;19940;-53
2022/08/15 04:32:11;;;;;;;;;;;24.70;84.10;;;;;;5049393;28;19924;-54
2022/08/15 04:34:38;;;;;;;;;;;24.70;83.80;;;;;;5051747;28;19920;-49
2022/08/15 04:37:03;;;;;;;;;;;24.70;83.70;;;;;;5049266;28;19996;-53
2022/08/15 04:39:29;;;;;;;;;;;24.80;83.90;;;;;;5052303;28;19952;-50
2022/08/15 04:41:55;;;;;;;;;;;24.80;83.90;;;;;;5053880;28;19920;-57
2022/08/15 04:44:20;;;;;;;;;;;24.80;83.80;;;;;;5045076;28;19916;-53
2022/08/15 04:46:46;;;;;;;;;;;24.70;83.70;;;;;;5048676;28;20395;-56
2022/08/15 04:49:12;;;;;;;;;;;24.60;84.30;;;;;;5045802;28;19944;-56
2022/08/15 04:51:37;;;;;;;;;;;24.50;84.70;;;;;;5052390;28;20546;-55
2022/08/15 04:54:03;;;;;;;;;;;24.50;84.60;;;;;;5052041;28;20020;-55
2022/08/15 04:56:29;;;;;;;;;;;24.60;84.50;;;;;;5050767;28;19971;-53
2022/08/15 04:58:54;;;;;;;;;;;24.60;84.60;;;;;;5052976;28;19936;-54
2022/08/15 05:01:20;;;;;;;;;;;24.60;84.60;;;;;;5051855;28;19917;-52
2022/08/15 05:03:45;;;;;;;;;;;24.70;84.80;;;;;;5044406;28;19909;-56
2022/08/15 05:06:11;;;;;;;;;;;24.80;84.80;;;;;;5051904;28;19917;-54
2022/08/15 05:08:37;;;;;;;;;;;24.80;84.60;;;;;;5052831;28;19984;-55
2022/08/15 05:11:11;;;;;;;;;;;24.80;84.70;;;;;;5051502;28;19920;-53
2022/08/15 05:13:38;;;;;;;;;;;24.80;84.70;;;;;;5053669;28;19992;-57
2022/08/15 05:16:07;;;;;;;;;;;24.90;84.60;;;;;;5053017;28;19921;-55
2022/08/15 05:18:34;;;;;;;;;;;24.90;84.70;;;;;;5044814;28;19917;-54
2022/08/15 05:21:00;;;;;;;;;;;24.90;84.70;;;;;;5051514;28;19912;-57
2022/08/15 05:23:26;;;;;;;;;;;25.00;84.50;;;;;;5053483;28;20358;-56
2022/08/15 05:25:53;;;;;;;;;;;25.00;84.20;;;;;;5052558;28;19909;-57
2022/08/15 05:28:19;;;;;;;;;;;25.00;84.10;;;;;;5051979;28;19916;-53
2022/08/15 05:30:45;;;;;;;;;;;25.10;84.20;;;;;;5049906;28;19966;-52
2022/08/15 05:33:13;;;;;;;;;;;25.10;84.10;;;;;;5053231;28;20022;-57
2022/08/15 05:35:41;;;;;;;;;;;25.00;84.00;;;;;;5052052;28;19917;-54
2022/08/15 05:38:10;;;;;;;;;;;25.00;84.20;;;;;;5042057;28;19917;-57
2022/08/15 05:40:44;;;;;;;;;;;25.00;84.20;;;;;;5053059;28;20050;-55
2022/08/15 05:43:15;;;;;;;;;;;25.10;84.00;;;;;;5052829;28;20276;-54
2022/08/15 05:45:56;;;;;;;;;;;25.10;83.90;;;;;;5053648;28;19909;-55
2022/08/15 05:48:27;;;;;;;;;;;25.10;83.80;;;;;;5053377;28;19925;-54
2022/08/15 05:50:54;;;;;;;;;;;25.10;83.70;;;;;;5053647;28;19913;-52
2022/08/15 05:53:29;;;;;;;;;;;25.00;84.00;;;;;;5053267;28;19913;-52
2022/08/15 05:56:00;;;;;;;;;;;25.00;84.10;;;;;;5052951;28;20387;-52
2022/08/15 05:58:39;;;;;;;;;;;25.00;84.40;;;;;;5052817;28;19920;-54
2022/08/15 06:01:08;;;;;;;;;;;25.00;84.60;;;;;;5054035;28;19944;-56
2022/08/15 06:03:35;;;;;;;;;;;24.80;84.90;;;;;;5053335;28;19916;-54
2022/08/15 06:06:04;;;;;;;;;;;24.80;85.20;;;;;;5052127;28;19970;-58
2022/08/15 06:08:32;;;;;;;;;;;24.80;85.60;;;;;;5052558;28;19916;-56
2022/08/15 06:11:03;;;;;;;;;;;24.80;85.50;;;;;;5053046;28;19913;-55
2022/08/15 06:13:37;;;;;;;;;;;24.80;85.40;;;;;;5041820;28;19913;-57
2022/08/15 06:16:06;;;;;;;;;;;24.90;85.40;;;;;;5052222;28;19916;-53
2022/08/15 06:18:34;;;;;;;;;;;24.90;85.10;;;;;;5045826;28;19963;-54
2022/08/15 06:21:00;;;;;;;;;;;24.90;85.30;;;;;;5042496;28;19909;-56
2022/08/15 06:23:29;;;;;;;;;;;24.90;85.40;;;;;;5047131;28;20380;-54
2022/08/15 06:25:58;;;;;;;;;;;25.00;85.20;;;;;;5051287;28;20688;-57
2022/08/15 06:28:37;;;;;;;;;;;25.00;85.00;;;;;;5033114;28;19909;-55
2022/08/15 06:31:11;;;;;;;;;;;25.10;84.70;;;;;;5032736;28;19913;-56
2022/08/15 06:33:46;;;;;;;;;;;25.20;84.80;;;;;;5035908;28;19932;-53
2022/08/15 06:36:11;;;;;;;;;;;25.20;84.90;;;;;;5051670;28;19913;-55
2022/08/15 06:38:48;;;;;;;;;;;25.20;84.80;;;;;;5055983;28;20007;-51
2022/08/15 06:41:20;;;;;;;;;;;25.30;84.70;;;;;;5055942;28;19931;-51
2022/08/15 06:43:46;;;;;;;;;;;25.40;84.70;;;;;;5055859;28;19913;-55
2022/08/15 06:46:11;;;;;;;;;;;25.40;84.40;;;;;;5055476;28;19909;-56
2022/08/15 06:48:39;;;;;;;;;;;25.40;84.70;;;;;;5054919;28;20003;-54
2022/08/15 06:51:06;;;;;;;;;;;25.40;84.60;;;;;;5055852;28;19908;-55
2022/08/15 06:53:52;;;;;;;;;;;25.50;84.60;;;;;;5041169;28;19919;-54
2022/08/15 06:56:18;;;;;;;;;;;25.60;84.40;;;;;;5055222;28;19916;-56
2022/08/15 06:58:46;;;;;;;;;;;25.60;84.10;;;;;;5055517;28;20051;-53
2022/08/15 07:01:17;;;;;;;;;;;25.70;83.90;;;;;;5053920;28;19939;-59
2022/08/15 07:04:01;;;;;;;;;;;25.90;83.90;;;;;;5055673;28;19915;-53
2022/08/15 07:06:34;;;;;;;;;;;26.00;83.70;;;;;;5040104;28;19913;-56
2022/08/15 07:09:29;;;;;;;;;;;26.00;83.50;;;;;;5052242;28;20101;-58
2022/08/15 07:11:59;;;;;;;;;;;26.10;83.50;;;;;;5049050;28;19913;-58
2022/08/15 07:14:47;;;;;;;;;;;26.20;83.00;;;;;;5035871;28;19918;-55
2022/08/15 07:17:17;;;;;;;;;;;26.30;83.00;;;;;;5044881;28;19913;-57
2022/08/15 07:19:43;;;;;;;;;;;26.50;82.60;;;;;;5053943;28;19961;-54
2022/08/15 07:22:09;;;;;;;;;;;26.70;82.90;;;;;;5054666;28;19992;-57
2022/08/15 07:24:35;;;;;;;;;;;26.80;81.90;;;;;;5055092;28;20360;-57
2022/08/15 07:27:04;;;;;;;;;;;26.80;81.80;;;;;;5055869;28;19955;-56
2022/08/15 07:29:32;;;;;;;;;;;26.80;81.80;;;;;;5055837;28;19919;-55
2022/08/15 07:31:59;;;;;;;;;;;26.80;81.80;;;;;;5054966;28;19919;-57
2022/08/15 07:34:25;;;;;;;;;;;26.80;81.50;;;;;;5054261;28;19999;-57
2022/08/15 07:37:01;;;;;;;;;;;26.90;81.40;;;;;;5054079;28;20027;-52
2022/08/15 07:39:26;;;;;;;;;;;26.90;81.20;;;;;;5055167;28;20369;-56
2022/08/15 07:41:53;;;;;;;;;;;27.00;81.00;;;;;;5055095;28;19915;-56
2022/08/15 07:44:21;;;;;;;;;;;27.00;80.60;;;;;;5046189;28;19971;-53
2022/08/15 07:46:58;;;;;;;;;;;27.10;80.50;;;;;;5034604;28;19914;-58
2022/08/15 07:49:25;;;;;;;;;;;27.10;80.30;;;;;;5035299;28;19909;-57
2022/08/15 07:51:57;;;;;;;;;;;27.20;80.30;;;;;;5034720;28;19927;-53
2022/08/15 07:54:25;;;;;;;;;;;27.20;80.20;;;;;;5035173;28;20043;-57
2022/08/15 07:56:54;;;;;;;;;;;27.20;80.10;;;;;;5035372;28;20389;-55
2022/08/15 07:59:21;;;;;;;;;;;27.30;79.80;;;;;;5034749;28;19999;-56
2022/08/15 08:01:46;;;;;;;;;;;27.30;79.50;;;;;;5035328;28;19920;-56
2022/08/15 08:04:15;;;;;;;;;;;27.40;79.50;;;;;;5035376;28;19917;-58
2022/08/15 08:06:56;;;;;;;;;;;27.40;79.40;;;;;;5034350;28;20365;-55
2022/08/15 08:09:26;;;;;;;;;;;27.40;79.00;;;;;;5033315;28;20006;-57
2022/08/15 08:11:54;;;;;;;;;;;27.50;78.70;;;;;;5034582;28;19936;-54
2022/08/15 08:14:35;;;;;;;;;;;27.60;78.30;;;;;;5034645;28;20396;-55
2022/08/15 08:17:10;;;;;;;;;;;27.70;77.90;;;;;;5036548;28;20015;-56
2022/08/15 08:19:42;;;;;;;;;;;27.60;77.10;;;;;;5038892;28;20000;-55
2022/08/15 08:22:07;;;;;;;;;;;27.70;77.10;;;;;;5040639;28;19919;-55
2022/08/15 08:24:59;;;;;;;;;;;27.70;76.90;;;;;;5053087;28;19960;-56
2022/08/15 08:27:30;;;;;;;;;;;27.70;76.90;;;;;;5049174;28;19939;-57
2022/08/15 08:30:06;;;;;;;;;;;27.80;76.80;;;;;;5053652;28;19913;-55
2022/08/15 08:32:41;;;;;;;;;;;27.90;76.70;;;;;;5053539;28;19912;-57
2022/08/15 08:35:07;;;;;;;;;;;27.90;75.90;;;;;;5052850;28;19916;-54
2022/08/15 08:37:37;;;;;;;;;;;27.90;75.80;;;;;;5053840;28;19970;-55
2022/08/15 08:42:49;;;;;;;;;;;28.00;75.60;;;;;;5051373;28;19981;-56
2022/08/15 08:45:17;;;;;;;;;;;28.20;75.40;;;;;;5050306;28;19952;-56
2022/08/15 08:48:03;;;;;;;;;;;28.30;75.10;;;;;;5053378;28;20000;-56
2022/08/15 08:50:38;;;;;;;;;;;28.30;74.90;;;;;;5050371;28;19908;-55
2022/08/15 08:53:13;;;;;;;;;;;28.40;74.60;;;;;;5051090;28;20004;-56
2022/08/15 08:55:49;;;;;;;;;;;28.50;74.30;;;;;;5052789;28;19913;-56
2022/08/15 08:58:20;;;;;;;;;;;28.60;74.40;;;;;;5053794;28;19909;-56
2022/08/15 09:00:47;;;;;;;;;;;28.70;74.10;;;;;;5053829;28;19909;-56
2022/08/15 09:03:26;;;;;;;;;;;28.70;74.00;;;;;;5055123;28;19909;-53
2022/08/15 09:05:53;;;;;;;;;;;28.80;73.90;;;;;;5053150;28;19916;-55
2022/08/15 09:08:24;;;;;;;;;;;28.90;73.10;;;;;;5053159;28;19940;-56
2022/08/15 09:10:51;;;;;;;;;;;28.90;72.70;;;;;;5053737;28;19908;-57
2022/08/15 09:13:33;;;;;;;;;;;29.00;72.60;;;;;;5053459;28;19912;-56
2022/08/15 09:16:01;;;;;;;;;;;29.00;72.00;;;;;;5053491;28;20369;-57
2022/08/15 09:18:29;;;;;;;;;;;29.10;71.40;;;;;;5048664;28;19909;-54
2022/08/15 09:20:56;;;;;;;;;;;29.10;70.90;;;;;;5032638;28;19925;-56
2022/08/15 09:23:23;;;;;;;;;;;29.20;71.10;;;;;;5034032;28;19909;-53
2022/08/15 09:25:48;;;;;;;;;;;29.30;70.90;;;;;;5039214;28;19920;-53
2022/08/15 09:28:20;;;;;;;;;;;29.40;70.90;;;;;;5052917;28;20361;-51
2022/08/15 09:30:46;;;;;;;;;;;29.60;70.80;;;;;;5052661;28;20012;-58
2022/08/15 09:33:21;;;;;;;;;;;29.70;70.60;;;;;;5053322;28;20339;-57
2022/08/15 09:35:49;;;;;;;;;;;29.70;70.00;;;;;;5051183;28;19974;-52
2022/08/15 09:38:15;;;;;;;;;;;29.80;70.10;;;;;;5052141;28;19913;-54
2022/08/15 09:40:40;;;;;;;;;;;29.80;69.80;;;;;;5053394;28;19920;-56
2022/08/15 09:43:06;;;;;;;;;;;29.90;69.70;;;;;;5053128;28;19909;-54
2022/08/15 09:45:32;;;;;;;;;;;29.80;69.70;;;;;;5042164;28;19913;-52
2022/08/15 09:48:05;;;;;;;;;;;29.80;69.90;;;;;;5041762;28;19923;-51
2022/08/15 09:50:36;;;;;;;;;;;29.80;69.80;;;;;;5053468;28;19916;-56
2022/08/15 09:53:14;;;;;;;;;;;29.70;70.00;;;;;;5053091;28;19913;-57
2022/08/15 09:55:44;;;;;;;;;;;29.80;70.00;;;;;;5052982;28;20257;-57
2022/08/15 09:58:20;;;;;;;;;;;29.90;69.70;;;;;;5052391;28;19920;-57
2022/08/15 10:01:09;;;;;;;;;;;29.90;69.60;;;;;;5053540;28;20372;-55
2022/08/15 10:03:43;;;;;;;;;;;30.10;69.30;;;;;;5050570;28;20436;-56
2022/08/15 10:06:14;;;;;;;;;;;30.20;69.30;;;;;;5053670;28;20269;-55
2022/08/15 10:08:55;;;;;;;;;;;30.30;69.00;;;;;;5057602;28;19936;-53
2022/08/15 10:11:30;;;;;;;;;;;30.30;68.70;;;;;;5056526;28;19919;-55
2022/08/15 10:14:06;;;;;;;;;;;30.20;68.70;;;;;;5056649;28;19909;-57
2022/08/15 10:16:40;;;;;;;;;;;30.20;69.00;;;;;;5055438;28;19916;-52
2022/08/15 10:19:25;;;;;;;;;;;30.30;68.90;;;;;;5055408;28;20077;-56
2022/08/15 10:21:51;;;;;;;;;;;30.60;68.60;;;;;;5051426;28;19913;-56
2022/08/15 10:24:27;;;;;;;;;;;30.60;68.10;;;;;;5056412;28;19940;-58
2022/08/15 10:27:08;;;;;;;;;;;30.40;67.70;;;;;;5054577;28;19913;-58
2022/08/15 10:29:39;;;;;;;;;;;30.30;67.70;;;;;;5055594;28;20403;-56
2022/08/15 10:32:18;;;;;;;;;;;30.30;67.40;;;;;;5055918;28;19919;-55
2022/08/15 10:35:04;;;;;;;;;;;30.30;67.40;;;;;;5056030;28;19917;-54
2022/08/15 10:37:33;;;;;;;;;;;30.10;67.20;;;;;;5055808;28;19916;-55
2022/08/15 10:40:08;;;;;;;;;;;30.10;67.20;;;;;;5055591;28;19912;-56
2022/08/15 10:42:44;;;;;;;;;;;30.20;67.10;;;;;;5055828;28;19920;-57
2022/08/15 10:45:16;;;;;;;;;;;30.60;66.90;;;;;;5050508;28;19917;-55
2022/08/15 10:47:42;;;;;;;;;;;30.80;66.60;;;;;;5055726;28;19919;-52
2022/08/15 10:50:15;;;;;;;;;;;30.80;66.30;;;;;;5056077;28;19921;-57
2022/08/15 10:52:53;;;;;;;;;;;30.90;66.20;;;;;;5056145;28;19917;-57
2022/08/15 10:55:21;;;;;;;;;;;30.80;66.00;;;;;;5054610;28;20003;-56
2022/08/15 10:57:49;;;;;;;;;;;30.80;66.20;;;;;;5055432;28;19944;-57
2022/08/15 11:00:17;;;;;;;;;;;31.00;66.10;;;;;;5055670;28;19917;-55
2022/08/15 11:02:43;;;;;;;;;;;30.90;66.30;;;;;;5054860;28;19991;-56
2022/08/15 11:05:10;;;;;;;;;;;31.00;66.50;;;;;;5054908;28;19916;-56
2022/08/15 11:07:36;;;;;;;;;;;31.20;66.10;;;;;;5055556;28;19935;-53
2022/08/15 11:10:08;;;;;;;;;;;31.40;65.50;;;;;;5055118;28;20003;-57
2022/08/15 11:12:36;;;;;;;;;;;31.40;64.60;;;;;;5054874;28;19917;-55
2022/08/15 11:15:13;;;;;;;;;;;31.40;64.40;;;;;;5054979;28;20344;-57
2022/08/15 11:17:44;;;;;;;;;;;31.40;64.50;;;;;;5049699;28;19913;-55
2022/08/15 11:20:15;;;;;;;;;;;31.50;63.50;;;;;;5037045;28;19917;-55
2022/08/15 11:22:52;;;;;;;;;;;31.30;63.80;;;;;;5048410;28;20421;-54
2022/08/15 11:25:21;;;;;;;;;;;31.40;64.00;;;;;;5055080;28;19999;-56
2022/08/15 11:28:05;;;;;;;;;;;31.40;64.10;;;;;;5054873;28;19913;-56
2022/08/15 11:30:35;;;;;;;;;;;31.40;63.00;;;;;;5055435;28;20389;-56
2022/08/15 11:33:20;;;;;;;;;;;31.30;62.50;;;;;;5055039;28;19913;-56
2022/08/15 11:35:46;;;;;;;;;;;31.30;63.00;;;;;;5055719;28;19921;-54
2022/08/15 11:38:16;;;;;;;;;;;31.20;63.50;;;;;;5055397;28;19924;-54
2022/08/15 11:40:42;;;;;;;;;;;31.10;63.90;;;;;;5056029;28;19938;-56
2022/08/15 11:43:12;;;;;;;;;;;31.10;64.10;;;;;;5055374;28;19915;-56
2022/08/15 11:45:43;;;;;;;;;;;31.20;64.10;;;;;;5054814;28;19909;-56
2022/08/15 11:48:10;;;;;;;;;;;31.10;64.10;;;;;;5055006;28;19920;-55
2022/08/15 11:50:38;;;;;;;;;;;31.20;63.90;;;;;;5055096;28;20304;-53
2022/08/15 11:53:05;;;;;;;;;;;31.10;63.60;;;;;;5056308;28;19960;-57
2022/08/15 11:55:32;;;;;;;;;;;31.30;63.10;;;;;;5054591;28;19923;-56
2022/08/15 11:58:12;;;;;;;;;;;31.40;63.30;;;;;;5055635;28;20008;-57
2022/08/15 12:00:39;;;;;;;;;;;31.50;63.00;;;;;;5036937;28;19917;-55
2022/08/15 12:03:20;;;;;;;;;;;31.30;63.30;;;;;;5042336;28;19924;-54
2022/08/15 12:05:47;;;;;;;;;;;31.30;63.50;;;;;;5055154;28;19909;-57
2022/08/15 12:08:12;;;;;;;;;;;31.40;63.20;;;;;;5054813;28;19913;-57
2022/08/15 12:10:39;;;;;;;;;;;31.80;63.20;;;;;;5056478;28;19909;-54
2022/08/15 12:13:06;;;;;;;;;;;32.10;62.30;;;;;;5054980;28;19959;-57
2022/08/15 12:15:31;;;;;;;;;;;32.30;61.80;;;;;;5054382;28;20002;-56
2022/08/15 12:18:24;;;;;;;;;;;32.10;61.10;;;;;;5052690;28;20532;-61
2022/08/15 12:20:55;;;;;;;;;;;32.00;61.20;;;;;;5040227;28;19909;-56
2022/08/15 12:23:30;;;;;;;;;;;31.90;61.10;;;;;;5050345;28;20038;-54
2022/08/15 12:25:55;;;;;;;;;;;31.70;61.00;;;;;;5035280;28;19909;-55
2022/08/15 12:28:22;;;;;;;;;;;31.80;61.40;;;;;;5042889;28;19913;-56
2022/08/15 12:30:48;;;;;;;;;;;31.70;62.00;;;;;;5033925;28;19915;-54
2022/08/15 12:33:14;;;;;;;;;;;31.60;61.70;;;;;;5051831;28;20263;-54
2022/08/15 12:35:39;;;;;;;;;;;31.20;62.40;;;;;;5053684;28;19920;-55
2022/08/15 12:38:05;;;;;;;;;;;30.00;66.50;;;;;;5034267;28;19920;-56
2022/08/15 12:40:30;;;;;;;;;;;28.70;71.00;;;;;;5050479;28;19917;-54
2022/08/15 12:42:56;;;;;;;;;;;27.70;73.60;;;;;;5054754;28;20351;-56
2022/08/15 12:45:22;;;;;;;;;;;27.10;75.90;;;;;;5055085;28;20373;-56
2022/08/15 12:47:48;;;;;;;;;;;26.40;79.10;;;;;;5055299;28;19970;-56
2022/08/15 12:50:13;;;;;;;;;;;26.10;82.70;;;;;;5054312;28;20352;-61
2022/08/15 12:52:40;;;;;;;;;;;25.30;88.80;;;;;;5052840;28;19913;-61
2022/08/15 12:55:06;;;;;;;;;;;24.50;91.30;;;;;;5033204;28;19923;-62
2022/08/15 12:57:32;;;;;;;;;;;23.80;92.50;;;;;;5044505;28;19917;-60
2022/08/15 12:59:59;;;;;;;;;;;23.40;93.10;;;;;;5053116;28;19909;-61
2022/08/15 13:02:25;;;;;;;;;;;23.30;95.40;;;;;;5052438;28;20342;-62
2022/08/15 13:04:52;;;;;;;;;;;23.30;95.20;;;;;;5052503;28;19913;-60
2022/08/15 13:07:19;;;;;;;;;;;23.40;95.30;;;;;;5051134;28;20364;-60
2022/08/15 13:09:44;;;;;;;;;;;23.40;96.50;;;;;;5053250;28;19975;-61
2022/08/15 13:12:11;;;;;;;;;;;23.10;94.40;;;;;;5052411;28;19990;-60
2022/08/15 13:14:37;;;;;;;;;;;23.30;95.20;;;;;;5052334;28;20015;-60
2022/08/15 13:17:03;;;;;;;;;;;23.40;93.80;;;;;;5049179;28;19963;-60
2022/08/15 13:19:30;;;;;;;;;;;23.30;93.50;;;;;;5041286;28;19920;-61
2022/08/15 13:24:41;;;;;;;;;;;23.20;94.00;;;;;;5051609;28;19917;-60
2022/08/15 13:27:07;;;;;;;;;;;23.30;94.60;;;;;;5050517;28;19920;-63
2022/08/15 13:29:33;;;;;;;;;;;23.50;94.00;;;;;;5052664;28;19908;-61
2022/08/15 13:32:00;;;;;;;;;;;23.90;91.60;;;;;;5053471;28;20348;-59
2022/08/15 13:34:29;;;;;;;;;;;24.30;91.60;;;;;;5052567;28;19913;-58
2022/08/15 13:36:55;;;;;;;;;;;24.20;93.30;;;;;;5051508;28;19912;-55
2022/08/15 13:39:22;;;;;;;;;;;24.20;94.30;;;;;;5051901;28;19919;-59
2022/08/15 13:41:47;;;;;;;;;;;24.20;95.00;;;;;;5055387;28;19916;-57
2022/08/15 13:44:14;;;;;;;;;;;24.30;94.80;;;;;;5056932;28;19921;-57
2022/08/15 13:46:39;;;;;;;;;;;24.40;95.50;;;;;;5056089;28;20345;-56
2022/08/15 13:49:05;;;;;;;;;;;24.50;96.00;;;;;;5057629;28;19913;-57
2022/08/15 13:51:42;;;;;;;;;;;24.60;96.00;;;;;;5055179;28;19917;-56
2022/08/15 13:54:07;;;;;;;;;;;24.70;95.80;;;;;;5036363;28;19917;-57
2022/08/15 13:56:33;;;;;;;;;;;24.90;96.40;;;;;;5041784;28;19951;-57
2022/08/15 13:59:03;;;;;;;;;;;25.00;96.60;;;;;;5056644;28;20042;-54
2022/08/15 14:01:29;;;;;;;;;;;25.10;96.60;;;;;;5056480;28;20381;-56
2022/08/15 14:03:57;;;;;;;;;;;25.20;97.00;;;;;;5057000;28;19913;-57
2022/08/15 14:06:22;;;;;;;;;;;25.30;97.50;;;;;;5055731;28;19920;-53
2022/08/15 14:08:48;;;;;;;;;;;25.50;97.40;;;;;;5056236;28;19917;-53
2022/08/15 14:11:14;;;;;;;;;;;25.60;97.30;;;;;;5055874;28;19917;-57
2022/08/15 14:13:39;;;;;;;;;;;25.70;97.30;;;;;;5056864;28;19912;-56
2022/08/15 14:16:06;;;;;;;;;;;25.80;97.30;;;;;;5054951;28;19912;-55
2022/08/15 14:18:35;;;;;;;;;;;25.80;96.60;;;;;;5049586;28;19913;-55
2022/08/15 14:21:04;;;;;;;;;;;25.90;96.70;;;;;;5036781;28;19917;-57
2022/08/15 14:23:30;;;;;;;;;;;26.00;96.70;;;;;;5055711;28;19999;-56
2022/08/15 14:25:55;;;;;;;;;;;26.10;96.80;;;;;;5057038;28;19955;-56
2022/08/15 14:28:21;;;;;;;;;;;26.20;97.10;;;;;;5054575;28;20365;-55
2022/08/15 14:30:47;;;;;;;;;;;26.10;97.40;;;;;;5056889;28;19935;-54
2022/08/15 14:33:12;;;;;;;;;;;26.20;97.50;;;;;;5055477;28;19913;-55
2022/08/15 14:35:38;;;;;;;;;;;26.30;97.70;;;;;;5055974;28;20012;-55
2022/08/15 14:38:04;;;;;;;;;;;26.30;97.90;;;;;;5056795;28;19921;-55